createdAt,value
2018-06-17T05:02:57.095Z,95268.17
2018-06-17T05:08:01.182Z,95273.23
2018-06-17T05:13:04.518Z,95281.22
2018-06-17T05:18:07.847Z,95285.70
2018-06-17T05:23:11.177Z,95295.22
2018-06-17T05:28:15.286Z,95299.78
2018-06-17T05:33:18.651Z,95296.97
2018-06-17T05:38:22.288Z,95297.57
2018-06-17T05:43:25.634Z,95296.96
2018-06-17T05:48:28.989Z,95297.63
2018-06-17T05:53:32.351Z,95307.03
2018-06-17T05:58:36.051Z,95305.20
2018-06-17T06:03:39.383Z,95307.98
2018-06-17T06:08:53.318Z,95309.90
2018-06-17T06:13:56.646Z,95318.99
2018-06-17T06:18:59.987Z,95319.92
2018-06-17T06:24:03.321Z,95317.69
2018-06-17T06:29:06.668Z,95316.16
2018-06-17T06:34:10.007Z,95320.30
2018-06-17T06:39:19.532Z,95323.00
2018-06-17T06:44:22.861Z,95329.82
2018-06-17T06:49:41.490Z,95321.27
2018-06-17T06:54:44.846Z,95330.80
2018-06-17T06:59:48.163Z,95338.25
2018-06-17T07:22:07.187Z,95357.87
2018-06-17T07:27:46.591Z,95358.58
2018-06-17T07:32:49.918Z,95353.50
2018-06-17T07:37:53.375Z,95358.77
2018-06-17T07:42:56.843Z,95362.11
2018-06-17T07:48:00.223Z,95360.27
2018-06-17T07:53:11.413Z,95361.92
2018-06-17T07:58:14.784Z,95361.34
2018-06-17T08:03:18.450Z,95366.90
2018-06-17T08:08:21.959Z,95371.84
2018-06-17T08:13:25.678Z,95377.05
2018-06-17T08:18:29.042Z,95376.11
2018-06-17T08:23:33.147Z,95375.34
2018-06-17T08:28:36.662Z,95377.98
2018-06-17T08:33:39.998Z,95378.01
2018-06-17T08:38:43.350Z,95386.99
2018-06-17T08:43:46.679Z,95380.86
2018-06-17T08:48:50.036Z,95379.63
2018-06-17T08:53:54.142Z,95382.55
2018-06-17T08:58:57.487Z,95375.22
2018-06-17T09:04:01.582Z,95385.05
2018-06-17T09:09:17.166Z,95389.72
2018-06-17T09:14:20.525Z,95393.74
2018-06-17T09:19:24.683Z,95385.23
2018-06-17T09:24:27.988Z,95387.50
2018-06-17T09:29:31.335Z,95391.63
2018-06-17T09:34:34.667Z,95401.12
2018-06-17T09:45:20.656Z,95407.95
2018-06-17T09:50:33.313Z,95406.77
2018-06-17T09:55:36.882Z,95397.91
2018-06-17T10:00:42.224Z,95409.50
2018-06-17T10:05:45.560Z,95420.75
2018-06-17T10:10:49.669Z,95419.29
2018-06-17T10:15:53.167Z,95424.25
2018-06-17T10:20:56.683Z,95423.64
2018-06-17T10:26:00.035Z,95443.93
2018-06-17T10:31:04.159Z,95438.34
2018-06-17T10:36:07.498Z,95430.41
2018-06-17T10:41:10.838Z,95424.77
2018-06-17T10:46:14.170Z,95431.62
2018-06-17T10:51:17.511Z,95434.30
2018-06-17T10:56:20.970Z,95444.12
2018-06-17T11:01:24.306Z,95431.69
2018-06-17T11:06:27.747Z,95439.50
2018-06-17T11:11:31.095Z,95435.73
2018-06-17T11:16:34.423Z,95429.64
2018-06-17T11:21:37.949Z,95429.27
2018-06-17T11:26:41.395Z,95424.02
2018-06-17T11:31:44.784Z,95428.31
2018-06-17T11:36:48.224Z,95425.28
2018-06-17T11:41:51.569Z,95420.75
2018-06-17T11:46:55.684Z,95411.98
2018-06-17T11:51:59.126Z,95398.35
2018-06-17T11:57:02.471Z,95399.81
2018-06-17T12:02:05.924Z,95391.45
2018-06-17T12:07:09.330Z,95379.72
2018-06-17T12:12:13.711Z,95379.64
2018-06-17T12:17:17.077Z,95389.66
2018-06-17T12:22:20.420Z,95388.79
2018-06-17T12:27:23.782Z,95380.63
2018-06-17T12:32:27.237Z,95375.61
2018-06-17T12:37:30.683Z,95372.18
2018-06-17T12:42:34.054Z,95375.47
2018-06-17T12:47:37.402Z,95367.66
2018-06-17T12:52:41.063Z,95363.12
2018-06-17T12:57:44.717Z,95355.27
2018-06-17T13:02:48.539Z,95354.65
2018-06-17T13:07:51.919Z,95351.52
2018-06-17T13:12:55.276Z,95349.14
2018-06-17T13:17:58.607Z,95344.98
2018-06-17T13:23:01.956Z,95342.81
2018-06-17T13:28:05.295Z,95341.39
2018-06-17T13:33:08.660Z,95343.20
2018-06-17T13:38:15.344Z,95335.84
2018-06-17T13:43:18.697Z,95334.61
2018-06-17T13:48:22.034Z,95330.83
2018-06-17T13:53:25.390Z,95341.17
2018-06-17T13:58:29.035Z,95335.41
2018-06-17T14:03:32.622Z,95339.16
2018-06-17T14:08:36.152Z,95334.30
2018-06-17T14:13:39.706Z,95334.70
2018-06-17T14:18:43.397Z,95329.94
2018-06-17T14:23:46.900Z,95323.69
2018-06-17T14:28:50.717Z,95330.91
2018-06-17T14:33:54.358Z,95329.67
2018-06-17T14:38:58.153Z,95322.81
2018-06-17T14:55:03.957Z,95316.38
2018-06-17T15:00:07.287Z,95320.33
2018-06-17T15:05:11.407Z,95306.81
2018-06-17T15:10:14.770Z,95314.95
2018-06-17T15:15:18.150Z,95300.64
2018-06-17T15:20:21.500Z,95312.03
2018-06-17T15:25:24.892Z,95311.88
2018-06-17T15:30:28.211Z,95303.94
2018-06-17T15:40:59.554Z,95288.13
2018-06-17T15:46:02.874Z,95292.48
2018-06-17T15:51:06.311Z,95300.27
2018-06-17T15:56:09.639Z,95297.24
2018-06-17T16:01:12.993Z,95312.28
2018-06-17T16:06:20.478Z,95308.59
2018-06-17T16:11:24.072Z,95307.58
2018-06-17T16:22:00.679Z,95310.22
2018-06-17T16:27:04.269Z,95314.58
2018-06-17T16:32:07.745Z,95329.50
2018-06-17T16:37:11.150Z,95332.53
2018-06-17T16:42:15.373Z,95333.12
2018-06-17T16:47:20.090Z,95337.59
2018-06-17T16:57:58.462Z,95368.58
2018-06-17T17:03:02.688Z,95389.02
2018-06-17T17:08:06.262Z,95392.58
2018-06-17T17:13:11.225Z,95393.06
2018-06-17T17:18:14.690Z,95408.96
2018-06-17T17:23:19.318Z,95391.77
2018-06-17T17:28:23.037Z,95392.16
2018-06-17T17:39:02.105Z,95390.42
2018-06-17T17:44:07.148Z,95390.76
2018-06-17T17:49:10.702Z,95389.26
2018-06-17T17:54:14.856Z,95398.20
2018-06-17T17:59:19.253Z,95408.06
2018-06-17T18:04:22.922Z,95419.48
2018-06-17T18:09:27.467Z,95434.93
2018-06-17T18:14:31.856Z,95451.23
2018-06-17T18:19:35.692Z,95487.49
2018-06-17T18:24:39.059Z,95498.25
2018-06-17T18:35:29.770Z,95531.73
2018-06-17T18:40:33.099Z,95532.92
2018-06-17T18:45:36.435Z,95531.44
2018-06-17T18:50:43.935Z,95534.01
2018-06-17T18:55:47.319Z,95539.09
2018-06-17T19:01:00.972Z,95543.45
2018-06-17T19:06:04.308Z,95543.58
2018-06-17T19:16:54.992Z,95566.91
2018-06-17T19:22:00.502Z,95570.95
2018-06-17T19:27:04.526Z,95583.96
2018-06-17T19:32:07.852Z,95584.21
2018-06-17T19:37:11.306Z,95587.52
2018-06-17T19:42:15.417Z,95597.33
2018-06-17T19:47:18.763Z,95598.72
2018-06-17T19:58:02.252Z,95591.76
2018-06-17T20:03:06.363Z,95592.53
2018-06-17T20:08:09.861Z,95593.14
2018-06-17T20:13:13.287Z,95606.67
2018-06-17T20:18:16.677Z,95608.98
2018-06-17T20:23:20.007Z,95625.78
2018-06-17T20:28:23.355Z,95629.80
2018-06-17T20:44:34.586Z,95642.92
2018-06-17T20:49:37.933Z,95646.55
2018-06-17T20:54:41.263Z,95646.84
2018-06-17T20:59:44.621Z,95661.16
2018-06-17T21:04:47.947Z,95659.30
2018-06-17T21:09:51.336Z,95656.66
2018-06-17T21:14:54.632Z,95659.45
2018-06-17T21:25:40.790Z,95662.95
2018-06-17T21:30:44.167Z,95664.20
2018-06-17T21:35:47.463Z,95672.39
2018-06-17T21:40:52.498Z,95673.34
2018-06-17T21:45:55.843Z,95681.27
2018-06-17T21:50:59.939Z,95686.55
2018-06-17T21:56:03.276Z,95687.70
2018-06-17T22:01:07.379Z,95686.36
2018-06-17T22:06:10.708Z,95677.58
2018-06-17T22:16:57.750Z,95680.75
2018-06-17T22:22:01.084Z,95680.88
2018-06-17T22:27:04.411Z,95687.08
